createdAt,value
2022-11-30T00:01:50.000Z,57.03
2022-11-30T00:04:17.807Z,56.98
2022-11-30T00:06:47.024Z,56.60
2022-11-30T00:09:15.067Z,57.14
2022-11-30T00:11:42.907Z,56.61
2022-11-30T00:14:10.686Z,56.88
2022-11-30T00:16:38.644Z,57.17
2022-11-30T00:19:06.469Z,56.64
2022-11-30T00:21:34.256Z,57.15
2022-11-30T00:24:03.374Z,56.61
2022-11-30T00:26:31.128Z,57.01
2022-11-30T00:28:58.898Z,56.66
2022-11-30T00:31:28.057Z,56.81
2022-11-30T00:33:56.175Z,56.73
2022-11-30T00:36:24.174Z,56.93
2022-11-30T00:38:53.124Z,56.93
2022-11-30T00:41:22.603Z,56.92
2022-11-30T00:43:50.369Z,56.75
2022-11-30T00:46:18.412Z,56.84
2022-11-30T00:48:46.423Z,56.97
2022-11-30T00:51:16.173Z,57.19
2022-11-30T00:53:44.634Z,56.86
2022-11-30T00:56:12.383Z,57.07
2022-11-30T00:58:41.983Z,57.19
2022-11-30T01:01:10.117Z,57.29
2022-11-30T01:03:38.005Z,57.28
2022-11-30T01:06:06.885Z,57.25
2022-11-30T01:08:35.101Z,56.77
2022-11-30T01:11:07.621Z,57.38
2022-11-30T01:13:35.464Z,57.04
2022-11-30T01:16:10.582Z,57.36
2022-11-30T01:18:39.116Z,57.01
2022-11-30T01:21:08.144Z,57.00
2022-11-30T01:23:35.985Z,56.94
2022-11-30T01:26:04.035Z,57.03
2022-11-30T01:28:31.904Z,56.86
2022-11-30T01:31:00.385Z,57.32
2022-11-30T01:33:29.647Z,57.02
2022-11-30T01:36:01.964Z,57.08
2022-11-30T01:38:33.402Z,57.11
2022-11-30T01:41:01.315Z,57.52
2022-11-30T01:43:39.827Z,57.21
2022-11-30T01:46:18.843Z,57.25
2022-11-30T01:48:51.517Z,57.45
2022-11-30T01:51:19.369Z,57.49
2022-11-30T01:53:47.333Z,57.13
2022-11-30T01:56:15.402Z,57.05
2022-11-30T01:58:46.142Z,57.58
2022-11-30T02:01:14.026Z,57.10
2022-11-30T02:03:50.113Z,57.39
2022-11-30T02:06:20.012Z,57.15
2022-11-30T02:08:47.944Z,57.39
2022-11-30T02:11:17.036Z,57.11
2022-11-30T02:14:02.757Z,57.33
2022-11-30T02:16:41.056Z,57.43
2022-11-30T02:19:29.805Z,57.89
2022-11-30T02:22:04.600Z,57.45
2022-11-30T02:24:50.831Z,57.60
2022-11-30T02:27:38.564Z,57.42
2022-11-30T02:30:11.372Z,57.67
2022-11-30T02:32:47.510Z,57.31
2022-11-30T02:35:18.281Z,57.72
2022-11-30T02:37:47.168Z,57.28
2022-11-30T02:40:16.958Z,57.44
2022-11-30T02:42:44.803Z,57.59
2022-11-30T02:45:14.572Z,57.38
2022-11-30T02:47:47.884Z,57.31
2022-11-30T02:50:19.684Z,57.68
2022-11-30T02:52:48.043Z,57.42
2022-11-30T02:55:18.429Z,57.44
2022-11-30T02:57:46.574Z,57.24
2022-11-30T03:00:17.160Z,57.29
2022-11-30T03:02:45.005Z,57.84
2022-11-30T03:05:12.830Z,57.39
2022-11-30T03:07:40.713Z,57.46
2022-11-30T03:10:10.171Z,57.39
2022-11-30T03:12:38.548Z,57.65
2022-11-30T03:15:07.428Z,57.31
2022-11-30T03:17:36.636Z,57.50
2022-11-30T03:20:05.272Z,57.32
2022-11-30T03:22:33.082Z,57.20
2022-11-30T03:25:00.855Z,57.77
2022-11-30T03:27:28.747Z,57.73
2022-11-30T03:29:56.639Z,57.78
2022-11-30T03:32:24.576Z,57.48
2022-11-30T03:34:53.765Z,57.28
2022-11-30T03:37:21.573Z,57.60
2022-11-30T03:39:53.575Z,57.55
2022-11-30T03:42:24.364Z,57.62
2022-11-30T03:44:52.190Z,57.19
2022-11-30T03:47:20.014Z,57.66
2022-11-30T03:49:47.993Z,57.39
2022-11-30T03:52:17.194Z,57.46
2022-11-30T03:54:45.277Z,57.12
2022-11-30T03:57:13.376Z,57.64
2022-11-30T03:59:41.157Z,57.45
2022-11-30T04:02:08.991Z,57.20
2022-11-30T04:04:36.771Z,57.35
2022-11-30T04:09:46.644Z,57.27
2022-11-30T04:12:14.457Z,57.65
2022-11-30T04:14:42.266Z,57.29
2022-11-30T04:17:10.094Z,57.48
2022-11-30T04:19:37.870Z,57.30
2022-11-30T04:22:05.689Z,57.39
2022-11-30T04:24:33.507Z,57.61
2022-11-30T04:27:02.711Z,57.23
2022-11-30T04:29:30.499Z,57.48
2022-11-30T04:31:58.495Z,57.80
2022-11-30T04:34:28.352Z,57.66
2022-11-30T04:37:00.287Z,57.55
2022-11-30T04:39:28.616Z,57.76
2022-11-30T04:41:56.551Z,57.33
2022-11-30T04:44:26.080Z,57.53
2022-11-30T04:46:54.052Z,57.77
2022-11-30T04:49:21.903Z,57.44
2022-11-30T04:51:49.661Z,57.41
2022-11-30T04:54:17.746Z,57.47
2022-11-30T04:56:45.496Z,57.05
2022-11-30T04:59:13.622Z,56.97
2022-11-30T05:01:43.184Z,57.42
2022-11-30T05:04:11.715Z,57.13
2022-11-30T05:06:39.629Z,57.35
2022-11-30T05:09:07.639Z,57.18
2022-11-30T05:11:35.459Z,57.28
2022-11-30T05:14:03.259Z,56.96
2022-11-30T05:16:31.200Z,56.81
2022-11-30T05:19:00.392Z,56.76
2022-11-30T05:21:28.179Z,56.83
2022-11-30T05:23:55.975Z,56.85
2022-11-30T05:26:23.933Z,56.65
2022-11-30T05:28:51.719Z,56.85
2022-11-30T05:31:19.660Z,56.34
2022-11-30T05:33:51.833Z,56.29
2022-11-30T05:36:21.918Z,56.17
2022-11-30T05:38:50.142Z,56.60
2022-11-30T05:41:17.932Z,56.17
2022-11-30T05:43:45.737Z,56.21
2022-11-30T05:46:13.647Z,55.94
2022-11-30T05:48:41.506Z,56.11
2022-11-30T05:51:11.510Z,56.11
2022-11-30T05:53:40.818Z,56.11
2022-11-30T05:56:12.615Z,55.82
2022-11-30T05:58:41.263Z,56.36
2022-11-30T06:01:09.300Z,56.20
2022-11-30T06:03:37.411Z,56.37
2022-11-30T06:06:05.522Z,56.10
2022-11-30T06:08:33.418Z,56.13
2022-11-30T06:11:02.930Z,55.77
2022-11-30T06:13:32.456Z,56.15
2022-11-30T06:16:00.557Z,55.85
2022-11-30T06:18:28.571Z,55.82
2022-11-30T06:21:00.066Z,56.08
2022-11-30T06:23:27.857Z,56.03
2022-11-30T06:25:55.686Z,55.84
2022-11-30T06:28:25.170Z,55.66
2022-11-30T06:30:52.965Z,56.00
2022-11-30T06:33:23.904Z,55.78
2022-11-30T06:35:51.946Z,55.81
2022-11-30T06:38:20.668Z,55.89
2022-11-30T06:40:48.685Z,55.74
2022-11-30T06:43:16.808Z,56.07
2022-11-30T06:45:46.713Z,55.96
2022-11-30T06:48:15.148Z,55.82
2022-11-30T06:50:46.973Z,55.56
2022-11-30T06:53:17.998Z,55.93
2022-11-30T06:55:45.803Z,55.59
2022-11-30T06:58:13.662Z,55.89
2022-11-30T07:00:42.881Z,56.08
2022-11-30T07:03:12.947Z,55.36
2022-11-30T07:05:43.993Z,55.37
2022-11-30T07:08:12.231Z,55.83
2022-11-30T07:10:41.627Z,55.80
2022-11-30T07:13:11.892Z,55.87
2022-11-30T07:15:40.189Z,55.80
2022-11-30T07:18:08.443Z,55.51
2022-11-30T07:20:38.516Z,55.86
2022-11-30T07:23:20.470Z,55.59
2022-11-30T07:26:06.470Z,55.54
2022-11-30T07:28:34.960Z,55.75
2022-11-30T07:31:02.881Z,55.83
2022-11-30T07:33:32.509Z,55.76
2022-11-30T07:36:01.658Z,56.00
2022-11-30T07:38:29.416Z,55.69
2022-11-30T07:40:58.922Z,55.97
2022-11-30T07:43:26.868Z,55.98
2022-11-30T07:45:55.133Z,56.07
2022-11-30T07:48:23.491Z,55.97
2022-11-30T07:50:51.576Z,56.16
2022-11-30T07:53:20.734Z,55.98
2022-11-30T07:55:52.747Z,55.81
2022-11-30T07:58:24.580Z,55.90
2022-11-30T08:00:52.833Z,55.87
2022-11-30T08:03:20.665Z,55.66
2022-11-30T08:05:48.454Z,56.09
2022-11-30T08:08:16.336Z,55.97
2022-11-30T08:10:45.442Z,55.96
2022-11-30T08:13:13.305Z,56.21
2022-11-30T08:15:41.155Z,55.75
2022-11-30T08:18:09.127Z,55.82
2022-11-30T08:20:36.896Z,56.15
2022-11-30T08:23:04.762Z,55.91
2022-11-30T08:25:32.593Z,55.81
2022-11-30T08:28:01.935Z,55.91
2022-11-30T08:30:32.838Z,56.13
2022-11-30T08:33:00.877Z,56.37
2022-11-30T08:35:28.620Z,56.14
2022-11-30T08:37:56.484Z,55.94
2022-11-30T08:40:24.404Z,56.15
2022-11-30T08:42:52.414Z,55.98
2022-11-30T08:45:21.580Z,55.99
2022-11-30T08:47:49.372Z,56.07
2022-11-30T08:50:17.192Z,55.99
2022-11-30T08:52:45.091Z,55.83
2022-11-30T08:55:15.631Z,55.98
2022-11-30T08:57:46.345Z,56.10
2022-11-30T09:00:15.283Z,55.92
2022-11-30T09:02:44.537Z,55.71
2022-11-30T09:05:12.756Z,55.77
2022-11-30T09:07:40.879Z,55.87
2022-11-30T09:10:09.631Z,55.67
2022-11-30T09:12:38.356Z,56.03
2022-11-30T09:15:07.444Z,55.67
2022-11-30T09:17:35.620Z,55.71
2022-11-30T09:20:05.751Z,55.83
2022-11-30T09:22:33.545Z,55.77
2022-11-30T09:25:01.476Z,55.76
2022-11-30T09:27:32.083Z,55.88
2022-11-30T09:30:00.236Z,55.88
2022-11-30T09:32:29.090Z,56.16
2022-11-30T09:34:56.935Z,56.20
2022-11-30T09:37:26.089Z,55.50
2022-11-30T09:39:53.869Z,55.89
2022-11-30T09:42:42.523Z,55.25
2022-11-30T09:45:17.758Z,55.76
2022-11-30T09:48:13.086Z,55.41
2022-11-30T09:50:44.935Z,55.69
2022-11-30T09:53:24.676Z,55.79
2022-11-30T09:55:57.651Z,55.80
2022-11-30T09:58:37.578Z,55.63
2022-11-30T10:01:14.534Z,55.87
2022-11-30T10:03:42.532Z,56.06
2022-11-30T10:06:16.213Z,55.87
2022-11-30T10:09:08.230Z,55.63
2022-11-30T10:11:46.554Z,56.06
2022-11-30T10:14:27.634Z,55.76
2022-11-30T10:17:02.820Z,55.97
2022-11-30T10:19:47.357Z,55.82
2022-11-30T10:22:25.113Z,55.76
2022-11-30T10:25:11.456Z,55.78
2022-11-30T10:27:49.964Z,55.52
2022-11-30T10:30:22.110Z,55.78
2022-11-30T10:32:53.726Z,55.53
2022-11-30T10:35:30.226Z,55.66
2022-11-30T10:38:01.213Z,55.84
2022-11-30T10:40:38.656Z,56.00
2022-11-30T10:43:18.660Z,55.85
2022-11-30T10:45:49.703Z,55.74
2022-11-30T10:48:23.218Z,55.87
2022-11-30T10:50:52.380Z,55.79
2022-11-30T10:53:20.377Z,56.02
2022-11-30T10:55:57.168Z,55.46
2022-11-30T10:58:29.344Z,56.14
2022-11-30T11:01:06.079Z,55.86
2022-11-30T11:03:34.643Z,56.00
2022-11-30T11:06:15.532Z,55.51
2022-11-30T11:08:45.469Z,55.87
2022-11-30T11:11:31.200Z,55.36
2022-11-30T11:14:18.852Z,55.68
2022-11-30T11:16:55.544Z,55.73
2022-11-30T11:19:26.113Z,55.65
2022-11-30T11:21:54.828Z,55.92
2022-11-30T11:24:27.842Z,55.61
2022-11-30T11:26:58.170Z,55.54
2022-11-30T11:29:33.293Z,55.95
2022-11-30T11:32:10.491Z,55.57
2022-11-30T11:34:38.373Z,55.90
2022-11-30T11:37:08.662Z,55.47
2022-11-30T11:39:36.999Z,55.69
2022-11-30T11:42:06.515Z,55.83
2022-11-30T11:44:34.400Z,55.71
2022-11-30T11:47:09.527Z,55.42
2022-11-30T11:49:38.977Z,55.65
2022-11-30T11:52:15.458Z,55.66
2022-11-30T11:54:50.854Z,55.99
2022-11-30T11:57:24.565Z,55.74
2022-11-30T11:59:58.177Z,55.73
2022-11-30T12:02:35.637Z,55.65
2022-11-30T12:05:11.309Z,55.79
2022-11-30T12:07:45.182Z,55.81
2022-11-30T12:13:19.773Z,55.95
2022-11-30T12:16:00.284Z,55.68
2022-11-30T12:18:36.892Z,55.76
2022-11-30T12:21:13.098Z,55.82
2022-11-30T12:23:56.357Z,55.54
2022-11-30T12:26:35.205Z,55.70
2022-11-30T12:29:22.533Z,55.69
2022-11-30T12:32:09.969Z,55.52
2022-11-30T12:34:57.855Z,55.87
2022-11-30T12:37:37.471Z,55.50
2022-11-30T12:40:21.946Z,55.64
2022-11-30T12:42:57.905Z,55.84
2022-11-30T12:45:34.976Z,55.75
2022-11-30T12:48:09.751Z,56.05
2022-11-30T12:50:52.657Z,55.46
2022-11-30T12:53:28.932Z,55.94
2022-11-30T12:56:11.981Z,55.62
2022-11-30T12:58:48.626Z,55.62
2022-11-30T13:01:33.076Z,55.59
2022-11-30T13:04:07.641Z,55.81
2022-11-30T13:06:40.439Z,55.93
2022-11-30T13:09:19.722Z,56.07
2022-11-30T13:11:53.857Z,55.47
2022-11-30T13:14:25.182Z,55.85
2022-11-30T13:17:02.210Z,55.09
2022-11-30T13:19:47.188Z,54.89
2022-11-30T13:22:22.303Z,55.13
2022-11-30T13:24:58.811Z,55.36
2022-11-30T13:27:35.685Z,55.27
2022-11-30T13:30:39.726Z,54.73
2022-11-30T13:33:49.356Z,55.13
2022-11-30T13:36:32.851Z,55.13
2022-11-30T13:39:31.525Z,55.47
2022-11-30T13:42:34.755Z,55.03
2022-11-30T13:45:33.255Z,55.17
2022-11-30T13:48:17.343Z,55.68
2022-11-30T13:50:49.086Z,55.32
2022-11-30T13:53:27.526Z,55.36
2022-11-30T13:56:01.652Z,55.57
2022-11-30T13:58:30.558Z,55.60
2022-11-30T14:01:22.603Z,55.38
2022-11-30T14:04:36.169Z,55.38
2022-11-30T14:07:26.262Z,55.63
2022-11-30T14:10:00.003Z,55.58
2022-11-30T14:12:58.800Z,55.64
2022-11-30T14:16:00.482Z,55.34
2022-11-30T14:18:41.195Z,55.17
2022-11-30T14:21:19.102Z,55.05
2022-11-30T14:23:55.295Z,55.56
2022-11-30T14:26:28.520Z,55.33
2022-11-30T14:29:03.379Z,55.33
2022-11-30T14:31:35.218Z,55.19
2022-11-30T14:34:10.205Z,55.17
2022-11-30T14:36:42.765Z,55.43
2022-11-30T14:39:26.779Z,55.35
2022-11-30T14:41:55.118Z,55.31
2022-11-30T14:44:22.973Z,55.32
2022-11-30T14:46:50.998Z,55.17
2022-11-30T14:49:21.117Z,55.27
2022-11-30T14:51:52.953Z,55.32
2022-11-30T14:54:37.804Z,55.13
2022-11-30T14:57:13.931Z,55.25
2022-11-30T14:59:49.254Z,55.54
2022-11-30T15:02:29.706Z,55.48
2022-11-30T15:04:59.783Z,55.22
2022-11-30T15:07:30.132Z,55.46
2022-11-30T15:10:04.828Z,55.25
2022-11-30T15:12:33.548Z,55.49
2022-11-30T15:15:15.307Z,55.65
2022-11-30T15:17:54.904Z,55.50
2022-11-30T15:20:30.196Z,55.65
2022-11-30T15:22:59.934Z,55.85
2022-11-30T15:25:41.844Z,55.65
2022-11-30T15:28:17.211Z,55.45
2022-11-30T15:30:49.990Z,55.50
2022-11-30T15:33:21.146Z,55.70
2022-11-30T15:36:15.905Z,55.60
2022-11-30T15:38:40.083Z,55.64
2022-11-30T15:41:19.967Z,55.52
2022-11-30T15:43:52.187Z,55.38
2022-11-30T15:46:32.649Z,55.83
2022-11-30T15:49:17.675Z,55.64
2022-11-30T15:51:47.380Z,55.53
2022-11-30T15:54:15.532Z,55.22
2022-11-30T15:56:57.498Z,55.29
2022-11-30T15:59:28.845Z,55.61
2022-11-30T16:02:08.438Z,55.81
2022-11-30T16:05:06.510Z,55.72
2022-11-30T16:07:39.486Z,55.48
2022-11-30T16:10:14.701Z,55.62
2022-11-30T16:12:44.911Z,55.55
2022-11-30T16:15:18.462Z,55.79
2022-11-30T16:17:46.715Z,55.78
2022-11-30T16:20:15.980Z,56.21
2022-11-30T16:22:45.144Z,55.76
2022-11-30T16:25:14.918Z,55.90
2022-11-30T16:27:44.851Z,55.97
2022-11-30T16:30:16.996Z,55.74
2022-11-30T16:32:45.486Z,55.78
2022-11-30T16:35:20.147Z,55.32
2022-11-30T16:37:48.249Z,55.24
2022-11-30T16:40:16.501Z,55.36
2022-11-30T16:42:45.932Z,55.44
2022-11-30T16:45:16.874Z,55.73
2022-11-30T16:47:45.072Z,55.47
2022-11-30T16:50:14.673Z,55.32
2022-11-30T16:52:43.587Z,55.46
2022-11-30T16:55:14.952Z,55.18
2022-11-30T16:57:43.183Z,55.34
2022-11-30T17:00:15.576Z,55.42
2022-11-30T17:02:49.681Z,55.07
2022-11-30T17:05:17.893Z,55.61
2022-11-30T17:07:45.894Z,55.41
2022-11-30T17:10:14.106Z,55.69
2022-11-30T17:12:42.113Z,55.51
2022-11-30T17:15:16.432Z,55.52
2022-11-30T17:17:44.599Z,55.33
2022-11-30T17:20:14.115Z,55.84
2022-11-30T17:22:43.828Z,55.17
2022-11-30T17:25:15.991Z,55.61
2022-11-30T17:27:43.842Z,55.42
2022-11-30T17:30:14.856Z,55.41
2022-11-30T17:32:42.672Z,55.34
2022-11-30T17:35:11.322Z,55.39
2022-11-30T17:37:39.619Z,55.62
2022-11-30T17:40:11.421Z,55.64
2022-11-30T17:42:39.325Z,55.45
2022-11-30T17:45:08.177Z,55.32
2022-11-30T17:47:37.596Z,55.40
2022-11-30T17:50:06.760Z,55.56
2022-11-30T17:52:34.635Z,55.56
2022-11-30T17:55:03.323Z,55.63
2022-11-30T17:57:31.878Z,55.68
2022-11-30T17:59:59.776Z,55.38
2022-11-30T18:02:27.646Z,55.61
2022-11-30T18:04:56.844Z,55.67
2022-11-30T18:07:25.094Z,55.49
2022-11-30T18:09:52.894Z,55.75
2022-11-30T18:12:20.736Z,55.33
2022-11-30T18:14:49.222Z,55.35
2022-11-30T18:17:17.266Z,55.70
2022-11-30T18:19:45.009Z,55.65
2022-11-30T18:22:14.159Z,55.63
2022-11-30T18:24:41.970Z,55.20
2022-11-30T18:27:09.945Z,55.52
2022-11-30T18:29:38.069Z,55.56
2022-11-30T18:32:06.628Z,55.41
2022-11-30T18:34:34.410Z,55.21
2022-11-30T18:37:02.377Z,55.38
2022-11-30T18:39:31.632Z,55.36
2022-11-30T18:41:59.446Z,55.27
2022-11-30T18:44:27.415Z,55.54
2022-11-30T18:46:55.238Z,55.17
2022-11-30T18:49:23.634Z,55.33
2022-11-30T18:51:51.544Z,55.27
2022-11-30T18:54:19.972Z,55.25
2022-11-30T18:56:49.453Z,55.37
2022-11-30T18:59:18.027Z,55.31
2022-11-30T19:01:46.463Z,55.23
2022-11-30T19:04:14.894Z,55.51
2022-11-30T19:06:43.759Z,55.24
2022-11-30T19:09:14.051Z,55.38
2022-11-30T19:11:43.344Z,55.75
2022-11-30T19:14:14.490Z,55.51
2022-11-30T19:16:43.474Z,55.55
2022-11-30T19:19:13.860Z,55.41
2022-11-30T19:21:44.202Z,55.40
2022-11-30T19:24:12.267Z,55.40
2022-11-30T19:26:40.779Z,55.46
2022-11-30T19:29:09.383Z,55.74
2022-11-30T19:31:38.792Z,55.45
2022-11-30T19:34:12.539Z,55.38
2022-11-30T19:36:41.966Z,55.66
2022-11-30T19:39:11.308Z,55.34
2022-11-30T19:41:39.384Z,55.36
2022-11-30T19:44:07.242Z,55.41
2022-11-30T19:46:35.377Z,55.70
2022-11-30T19:49:04.754Z,55.41
2022-11-30T19:51:33.008Z,55.35
2022-11-30T19:54:01.728Z,55.88
2022-11-30T19:56:31.583Z,55.19
2022-11-30T19:59:05.026Z,55.47
2022-11-30T20:01:35.251Z,55.57
2022-11-30T20:04:05.421Z,55.17
2022-11-30T20:06:35.952Z,55.30
2022-11-30T20:09:05.354Z,55.41
2022-11-30T20:11:34.482Z,55.15
2022-11-30T20:14:02.851Z,55.46
2022-11-30T20:16:31.011Z,55.21
2022-11-30T20:19:01.227Z,55.36
2022-11-30T20:21:32.044Z,55.26
2022-11-30T20:24:02.550Z,54.88
2022-11-30T20:26:32.844Z,55.11
2022-11-30T20:29:02.723Z,55.16
2022-11-30T20:31:32.156Z,55.27
2022-11-30T20:34:00.070Z,54.98
2022-11-30T20:36:28.615Z,55.25
2022-11-30T20:38:59.250Z,54.81
2022-11-30T20:41:27.813Z,54.79
2022-11-30T20:43:58.739Z,54.69
2022-11-30T20:46:29.022Z,54.96
2022-11-30T20:48:57.708Z,54.94
2022-11-30T20:51:31.782Z,54.87
2022-11-30T20:54:03.732Z,54.86
2022-11-30T20:56:31.592Z,55.05
2022-11-30T20:59:03.162Z,54.82
2022-11-30T21:01:31.545Z,55.02
2022-11-30T21:04:02.636Z,54.94
2022-11-30T21:06:31.257Z,54.79
2022-11-30T21:09:00.605Z,54.74
2022-11-30T21:11:30.753Z,55.03
2022-11-30T21:13:59.036Z,54.86
2022-11-30T21:16:29.781Z,55.10
2022-11-30T21:18:59.535Z,54.79
2022-11-30T21:21:30.477Z,54.84
2022-11-30T21:24:00.285Z,54.94
2022-11-30T21:26:31.467Z,55.06
2022-11-30T21:29:02.086Z,55.23
2022-11-30T21:31:31.299Z,55.39
2022-11-30T21:33:59.459Z,55.32
2022-11-30T21:36:27.815Z,55.12
2022-11-30T21:39:04.102Z,55.27
2022-11-30T21:41:35.210Z,55.32
2022-11-30T21:44:03.737Z,55.11
2022-11-30T21:46:33.985Z,55.16
2022-11-30T21:49:02.274Z,55.03
2022-11-30T21:51:32.141Z,55.15
2022-11-30T21:54:05.615Z,54.90
2022-11-30T21:56:37.221Z,55.11
2022-11-30T21:59:06.904Z,55.32
2022-11-30T22:01:36.647Z,55.41
2022-11-30T22:04:06.819Z,55.24
2022-11-30T22:06:39.964Z,55.43
2022-11-30T22:09:09.710Z,55.06
2022-11-30T22:11:41.168Z,55.24
2022-11-30T22:14:12.618Z,55.17
2022-11-30T22:16:40.812Z,55.11
2022-11-30T22:19:09.268Z,55.06
2022-11-30T22:21:37.266Z,55.13
2022-11-30T22:24:06.688Z,55.41
2022-11-30T22:26:36.558Z,55.22
2022-11-30T22:29:07.949Z,55.08
2022-11-30T22:31:37.868Z,54.95
2022-11-30T22:34:06.292Z,55.27
2022-11-30T22:36:36.593Z,55.29
2022-11-30T22:39:06.568Z,55.13
2022-11-30T22:41:34.665Z,55.06
2022-11-30T22:44:02.778Z,55.42
2022-11-30T22:46:33.874Z,55.11
2022-11-30T22:49:02.646Z,55.01
2022-11-30T22:51:32.605Z,55.15
2022-11-30T22:54:01.204Z,55.24
2022-11-30T22:56:31.281Z,55.30
2022-11-30T22:59:01.091Z,55.20
2022-11-30T23:01:31.966Z,54.87
2022-11-30T23:04:04.197Z,55.20
2022-11-30T23:06:32.342Z,55.60
2022-11-30T23:09:00.730Z,55.29
2022-11-30T23:11:29.789Z,55.49
2022-11-30T23:13:57.641Z,55.67
2022-11-30T23:16:26.053Z,55.30
2022-11-30T23:18:57.156Z,55.28
2022-11-30T23:21:26.709Z,55.28
2022-11-30T23:23:56.305Z,55.50
2022-11-30T23:26:26.259Z,55.42
2022-11-30T23:28:55.436Z,54.98
2022-11-30T23:31:33.808Z,55.12
2022-11-30T23:34:07.367Z,55.19
2022-11-30T23:36:36.862Z,55.05
2022-11-30T23:39:06.300Z,55.46
2022-11-30T23:41:34.315Z,55.39
2022-11-30T23:44:02.552Z,55.34
2022-11-30T23:46:30.933Z,55.56
2022-11-30T23:48:59.038Z,55.09
2022-11-30T23:51:28.390Z,54.94
2022-11-30T23:53:56.286Z,55.38
2022-11-30T23:56:25.306Z,55.01
2022-11-30T23:58:53.536Z,54.99
